createdAt,value
2022-09-07T00:03:57.497Z,100526.81
2022-09-07T00:13:59.266Z,100525.78
2022-09-07T00:24:01.011Z,100524.28
2022-09-07T00:34:02.685Z,100513.63
2022-09-07T00:44:23.306Z,100501.91
2022-09-07T00:54:28.080Z,100514.75
2022-09-07T01:04:30.528Z,100495.38
2022-09-07T01:14:34.818Z,100488.88
2022-09-07T01:24:54.977Z,100492.78
2022-09-07T01:34:56.815Z,100483.53
2022-09-07T01:45:00.875Z,100480.44
2022-09-07T01:55:15.716Z,100472.34
2022-09-07T02:05:19.814Z,100463.13
2022-09-07T02:15:28.642Z,100473.13
2022-09-07T02:25:33.348Z,100458.31
2022-09-07T02:35:35.413Z,100449.50
2022-09-07T02:45:46.169Z,100447.44
2022-09-07T02:55:56.785Z,100448.19
2022-09-07T03:06:04.753Z,100462.38
2022-09-07T03:16:06.970Z,100446.69
2022-09-07T03:26:15.221Z,100447.53
2022-09-07T03:36:16.943Z,100451.59
2022-09-07T03:46:19.763Z,100452.16
2022-09-07T03:56:22.807Z,100454.41
2022-09-07T04:06:24.730Z,100457.19
2022-09-07T04:16:27.155Z,100452.84
2022-09-07T04:26:30.349Z,100464.16
2022-09-07T04:36:32.251Z,100468.53
2022-09-07T04:46:35.219Z,100471.94
2022-09-07T04:56:37.089Z,100467.53
2022-09-07T05:06:38.792Z,100468.28
2022-09-07T05:16:40.528Z,100468.16
2022-09-07T05:26:42.541Z,100463.34
2022-09-07T05:36:44.270Z,100455.06
2022-09-07T05:46:45.987Z,100455.22
2022-09-07T05:56:48.655Z,100455.38
2022-09-07T06:07:17.740Z,100467.47
2022-09-07T06:17:12.001Z,100477.53
2022-09-07T06:27:13.677Z,100481.00
2022-09-07T06:37:15.567Z,100477.59
2022-09-07T06:47:17.434Z,100481.75
2022-09-07T06:57:19.142Z,100482.50
2022-09-07T07:07:23.207Z,100482.22
2022-09-07T07:17:33.399Z,100473.31
2022-09-07T07:27:40.782Z,100466.84
2022-09-07T07:37:44.648Z,100469.31
2022-09-07T07:47:51.394Z,100476.31
2022-09-07T07:57:53.229Z,100451.66
2022-09-07T08:07:57.573Z,100448.09
2022-09-07T08:17:59.609Z,100444.59
2022-09-07T08:28:01.805Z,100422.94
2022-09-07T08:38:03.556Z,100415.59
2022-09-07T08:48:05.768Z,100407.91
2022-09-07T08:58:26.996Z,100392.69
2022-09-07T09:08:43.356Z,100396.63
2022-09-07T09:18:47.978Z,100373.69
2022-09-07T09:28:49.847Z,100352.44
2022-09-07T09:38:54.726Z,100345.16
2022-09-07T09:49:09.070Z,100332.44
2022-09-07T10:10:43.975Z,100319.47
2022-09-07T10:21:25.075Z,100301.84
2022-09-07T10:31:52.217Z,100290.81
2022-09-07T10:42:11.717Z,100289.06
2022-09-07T10:52:53.104Z,100288.88
2022-09-07T11:14:35.840Z,100247.88
2022-09-07T11:24:45.271Z,100260.53
2022-09-07T11:34:54.745Z,100237.66
2022-09-07T11:45:08.859Z,100221.50
2022-09-07T11:55:19.188Z,100214.38
2022-09-07T12:05:38.574Z,100195.75
2022-09-07T12:16:06.589Z,100185.91
2022-09-07T12:26:46.760Z,100183.63
2022-09-07T12:36:53.804Z,100164.91
2022-09-07T12:46:58.843Z,100156.06
2022-09-07T12:57:34.691Z,100148.00
2022-09-07T13:07:42.454Z,100150.31
2022-09-07T13:18:50.085Z,100132.13
2022-09-07T13:29:16.927Z,100131.19
2022-09-07T13:39:21.296Z,100116.25
2022-09-07T13:49:41.225Z,100108.13
2022-09-07T13:59:43.244Z,100105.16
2022-09-07T14:09:45.069Z,100097.81
2022-09-07T14:19:59.182Z,100100.47
2022-09-07T14:30:17.353Z,100096.69
2022-09-07T14:40:21.981Z,100094.41
2022-09-07T14:50:32.666Z,100093.38
2022-09-07T15:00:34.522Z,100082.69
2022-09-07T15:10:41.728Z,100077.06
2022-09-07T15:20:45.141Z,100076.44
2022-09-07T15:31:40.392Z,100072.06
2022-09-07T15:41:23.866Z,100072.81
2022-09-07T16:01:55.317Z,100057.88
2022-09-07T16:13:00.222Z,100054.53
2022-09-07T16:32:44.450Z,100054.66
2022-09-07T16:42:47.893Z,100072.47
2022-09-07T16:52:49.842Z,100075.25
2022-09-07T17:02:52.778Z,100083.94
2022-09-07T17:12:54.997Z,100088.78
2022-09-07T17:22:56.530Z,100100.00
2022-09-07T17:32:58.820Z,100090.63
2022-09-07T17:53:39.779Z,100088.97
2022-09-07T18:03:41.940Z,100084.94
2022-09-07T18:13:47.617Z,100090.97
2022-09-07T18:23:56.273Z,100088.25
2022-09-07T18:33:58.479Z,100082.94
2022-09-07T18:55:15.162Z,100066.94
2022-09-07T19:15:42.433Z,100069.28
2022-09-07T19:37:59.519Z,100078.50
2022-09-07T19:48:33.577Z,100069.69
2022-09-07T19:58:36.223Z,100081.81
2022-09-07T20:08:37.905Z,100082.94
2022-09-07T20:18:40.154Z,100089.81
2022-09-07T20:28:42.329Z,100077.44
2022-09-07T20:38:45.265Z,100084.06
2022-09-07T20:48:47.179Z,100083.78
2022-09-07T20:58:55.757Z,100085.69
2022-09-07T21:09:00.255Z,100085.97
2022-09-07T21:19:02.768Z,100094.47
2022-09-07T21:29:05.335Z,100094.03
2022-09-07T21:39:10.350Z,100086.06
2022-09-07T21:49:14.150Z,100081.41
2022-09-07T21:59:15.905Z,100079.47
2022-09-07T22:09:17.613Z,100080.00
2022-09-07T22:19:19.341Z,100078.09
2022-09-07T22:29:20.957Z,100072.84
2022-09-07T22:39:22.653Z,100052.59
2022-09-07T22:49:25.393Z,100041.41
2022-09-07T22:59:27.366Z,100051.13
2022-09-07T23:09:29.184Z,100036.53
2022-09-07T23:19:31.015Z,100034.38
2022-09-07T23:29:32.774Z,100024.00
2022-09-07T23:39:34.579Z,100020.72
2022-09-07T23:49:37.334Z,100014.19
2022-09-07T23:59:39.577Z,100015.28
